Time;durP1;ratioP1;P1;durP2;ratioP2;P2;SDS_P1;SDS_P2;PMS_P1;PMS_P2;Temp;Humidity;BMP_temperature;BMP_pressure;BME280_temperature;BME280_humidity;BME280_pressure;Samples;Min_cycle;Max_cycle;Signal;HPM_P1;HPM_P2
2022/04/18 00:00:23;;;;;;;;;;;;;;;6.18;78.92;99478.94;4968682;28;19922;-83
2022/04/18 00:02:49;;;;;;;;;;;;;;;6.12;79.81;99477.22;4968266;28;20060;-82
2022/04/18 00:05:14;;;;;;;;;;;;;;;6.44;79.01;99474.56;4971995;28;20385;-83
2022/04/18 00:07:39;;;;;;;;;;;;;;;6.45;79.20;99475.44;4972113;28;20324;-83
2022/04/18 00:10:05;;;;;;;;;;;;;;;6.44;78.83;99476.28;4972027;28;20368;-83
2022/04/18 00:12:31;;;;;;;;;;;;;;;6.54;78.35;99474.53;4972325;28;20359;-82
2022/04/18 00:14:57;;;;;;;;;;;;;;;6.72;77.40;99476.22;4971763;28;20443;-83
2022/04/18 00:17:22;;;;;;;;;;;;;;;6.23;79.07;99472.84;4971846;28;20419;-82
2022/04/18 00:19:48;;;;;;;;;;;;;;;6.27;79.10;99460.59;4972072;28;19918;-83
2022/04/18 00:22:13;;;;;;;;;;;;;;;6.47;78.35;99464.94;4961102;28;20344;-83
2022/04/18 00:24:39;;;;;;;;;;;;;;;6.39;78.49;99468.44;4971869;28;19922;-83
2022/04/18 00:27:04;;;;;;;;;;;;;;;6.48;79.11;99467.56;4970685;28;19918;-82
2022/04/18 00:29:30;;;;;;;;;;;;;;;6.58;77.92;99471.91;4971136;28;19963;-83
2022/04/18 00:31:55;;;;;;;;;;;;;;;6.26;78.70;99462.34;4972249;28;20016;-82
2022/04/18 00:34:20;;;;;;;;;;;;;;;6.20;79.43;99458.88;4970556;28;19921;-82
2022/04/18 00:36:46;;;;;;;;;;;;;;;6.33;78.54;99450.09;4972152;28;19917;-82
2022/04/18 00:39:11;;;;;;;;;;;;;;;6.39;79.11;99447.47;4961269;28;19940;-81
2022/04/18 00:41:36;;;;;;;;;;;;;;;6.47;79.09;99452.69;4953037;28;20393;-82
2022/04/18 00:44:02;;;;;;;;;;;;;;;6.53;77.69;99450.06;4969644;28;19972;-82
2022/04/18 00:46:28;;;;;;;;;;;;;;;6.61;77.20;99445.69;4971837;28;19971;-82
2022/04/18 00:48:53;;;;;;;;;;;;;;;6.26;77.72;99438.78;4969087;28;20451;-83
2022/04/18 00:51:23;;;;;;;;;;;;;;;6.25;78.13;99442.25;4971183;28;19969;-82
2022/04/18 00:53:52;;;;;;;;;;;;;;;6.24;78.56;99439.63;4970213;28;19922;-83
2022/04/18 00:56:17;;;;;;;;;;;;;;;6.45;78.48;99428.25;4970586;28;19921;-83
2022/04/18 00:58:44;;;;;;;;;;;;;;;6.53;77.24;99428.25;4970866;28;19921;-83
2022/04/18 01:01:09;;;;;;;;;;;;;;;6.31;78.20;99428.28;4970413;28;20347;-83
2022/04/18 01:03:35;;;;;;;;;;;;;;;6.47;77.99;99429.13;4971265;28;20001;-83
2022/04/18 01:06:00;;;;;;;;;;;;;;;6.61;78.22;99429.06;4969888;28;19922;-83
2022/04/18 01:08:28;;;;;;;;;;;;;;;6.55;77.85;99421.22;4972092;28;19918;-84
2022/04/18 01:10:53;;;;;;;;;;;;;;;6.32;79.26;99419.56;4969967;28;19973;-84
2022/04/18 01:13:19;;;;;;;;;;;;;;;6.50;77.29;99418.63;4970076;28;19922;-83
2022/04/18 01:15:44;;;;;;;;;;;;;;;6.51;77.62;99409.91;4970361;28;19914;-84
2022/04/18 01:18:09;;;;;;;;;;;;;;;6.50;77.74;99415.16;4970287;28;20352;-83
2022/04/18 01:20:35;;;;;;;;;;;;;;;6.59;77.13;99417.75;4971672;28;19918;-83
2022/04/18 01:23:00;;;;;;;;;;;;;;;6.85;76.81;99420.25;4969345;28;19917;-83
2022/04/18 01:30:54;;;;;;;;;;;;;;;6.83;76.87;99408.91;4969933;28;20431;-83
2022/04/18 01:33:19;;;;;;;;;;;;;;;6.53;77.62;99402.91;4970380;28;19929;-83
2022/04/18 01:35:45;;;;;;;;;;;;;;;6.63;76.48;99399.38;4970251;28;19917;-84
2022/04/18 01:38:10;;;;;;;;;;;;;;;6.70;76.77;99394.09;4970758;28;19918;-84
2022/04/18 01:40:36;;;;;;;;;;;;;;;6.80;76.37;99401.94;4969341;28;19961;-84
2022/04/18 01:43:01;;;;;;;;;;;;;;;6.88;76.38;99388.78;4970748;28;19922;-83
2022/04/18 01:45:26;;;;;;;;;;;;;;;6.86;76.34;99401.03;4970244;28;19922;-85
2022/04/18 01:47:52;;;;;;;;;;;;;;;6.63;77.04;99402.00;4971208;28;19914;-83
2022/04/18 01:50:18;;;;;;;;;;;;;;;6.60;77.29;99402.00;4970355;28;19952;-84
2022/04/18 01:52:43;;;;;;;;;;;;;;;6.53;78.37;99397.66;4969878;28;19918;-84
2022/04/18 01:55:09;;;;;;;;;;;;;;;6.74;77.99;99395.84;4970271;28;19997;-84
2022/04/18 01:57:34;;;;;;;;;;;;;;;6.52;78.53;99384.56;4969170;28;19918;-84
2022/04/18 02:00:00;;;;;;;;;;;;;;;6.45;79.56;99389.81;4970357;28;19922;-84
2022/04/18 02:02:25;;;;;;;;;;;;;;;6.60;79.28;99394.16;4970296;28;19922;-84
2022/04/18 02:04:51;;;;;;;;;;;;;;;6.59;78.62;99387.16;4970143;28;19922;-84
2022/04/18 02:07:16;;;;;;;;;;;;;;;6.67;78.44;99383.63;4970289;28;20316;-85
2022/04/18 02:09:41;;;;;;;;;;;;;;;6.65;78.12;99396.75;4969913;28;19996;-84
2022/04/18 02:12:07;;;;;;;;;;;;;;;6.78;77.52;99390.59;4969622;28;19922;-84
2022/04/18 02:14:32;;;;;;;;;;;;;;;6.68;77.94;99382.75;4968996;28;19957;-84
2022/04/18 02:16:58;;;;;;;;;;;;;;;6.59;79.23;99381.03;4969862;28;19996;-84
2022/04/18 02:19:23;;;;;;;;;;;;;;;6.83;78.67;99382.69;4968125;28;20467;-84
2022/04/18 02:21:49;;;;;;;;;;;;;;;6.76;78.77;99383.59;4969405;28;19922;-84
2022/04/18 02:24:14;;;;;;;;;;;;;;;6.90;78.22;99386.16;4969067;28;20363;-83
2022/04/18 02:26:40;;;;;;;;;;;;;;;6.88;78.46;99383.53;4968712;28;19925;-85
2022/04/18 02:29:05;;;;;;;;;;;;;;;6.73;79.03;99383.59;4969895;28;19922;-85
2022/04/18 02:31:30;;;;;;;;;;;;;;;6.53;78.81;99374.06;4968711;28;19926;-84
2022/04/18 02:33:56;;;;;;;;;;;;;;;6.66;79.33;99376.63;4969819;28;20459;-85
2022/04/18 02:36:21;;;;;;;;;;;;;;;6.53;79.77;99376.69;4969719;28;19917;-84
2022/04/18 02:38:46;;;;;;;;;;;;;;;6.73;79.65;99376.59;4969991;28;19918;-84
2022/04/18 02:41:12;;;;;;;;;;;;;;;6.57;79.92;99386.28;4969298;28;19914;-84
2022/04/18 02:43:37;;;;;;;;;;;;;;;6.76;79.92;99378.34;4969858;28;19983;-84
2022/04/18 02:46:02;;;;;;;;;;;;;;;6.77;79.80;99377.47;4956646;28;20452;-84
2022/04/18 02:48:31;;;;;;;;;;;;;;;6.77;79.71;99380.09;4953315;28;20388;-83
2022/04/18 02:50:57;;;;;;;;;;;;;;;6.59;80.03;99374.03;4969186;28;19922;-81
2022/04/18 02:53:22;;;;;;;;;;;;;;;6.46;79.86;99369.75;4967873;28;19929;-82
2022/04/18 02:55:47;;;;;;;;;;;;;;;6.29;81.29;99369.78;4969686;28;19918;-81
2022/04/18 02:58:12;;;;;;;;;;;;;;;6.57;81.33;99375.81;4969739;28;19925;-81
2022/04/18 03:00:38;;;;;;;;;;;;;;;6.68;80.99;99378.38;4968195;28;19926;-81
2022/04/18 03:03:03;;;;;;;;;;;;;;;6.61;80.81;99379.28;4969659;28;19968;-82
2022/04/18 03:05:28;;;;;;;;;;;;;;;6.53;81.35;99373.19;4969070;28;20000;-83
2022/04/18 03:07:54;;;;;;;;;;;;;;;6.51;81.02;99380.22;4969472;28;19913;-83
2022/04/18 03:11:02;;;;;;;;;;;;;;;6.52;81.23;99379.31;4968808;28;19922;-83
2022/04/18 03:13:05;;;;;;;;;;;;;;;6.71;81.14;99382.75;4969023;28;19969;-83
2022/04/18 03:15:30;;;;;;;;;;;;;;;6.78;80.77;99384.44;4968820;28;19941;-84
2022/04/18 03:17:56;;;;;;;;;;;;;;;6.70;80.78;99386.25;4969194;28;19925;-82
2022/04/18 03:20:21;;;;;;;;;;;;;;;6.24;82.32;99384.63;4968567;28;19918;-84
2022/04/18 03:22:46;;;;;;;;;;;;;;;6.49;82.43;99379.31;4968708;28;19917;-83
2022/04/18 03:25:11;;;;;;;;;;;;;;;6.50;81.96;99386.31;4968793;28;20294;-83
2022/04/18 03:27:37;;;;;;;;;;;;;;;6.60;81.69;99383.66;4966793;28;20005;-83
2022/04/18 03:30:02;;;;;;;;;;;;;;;6.54;81.79;99362.72;4968187;28;20020;-83
2022/04/18 03:32:28;;;;;;;;;;;;;;;6.59;81.38;99381.03;4967546;28;19921;-82
2022/04/18 03:34:53;;;;;;;;;;;;;;;6.51;81.92;99369.72;4968890;28;20025;-84
2022/04/18 03:40:02;;;;;;;;;;;;;;;6.23;82.80;99375.91;4967541;28;20009;-83
2022/04/18 03:42:31;;;;;;;;;;;;;;;6.21;82.93;99375.06;4967215;28;19996;-82
2022/04/18 03:44:58;;;;;;;;;;;;;;;6.43;82.54;99375.00;4966734;28;19923;-82
2022/04/18 03:47:23;;;;;;;;;;;;;;;6.38;82.71;99371.50;4967884;28;19928;-83
2022/04/18 03:49:49;;;;;;;;;;;;;;;6.59;82.18;99375.81;4968187;28;19922;-83
2022/04/18 03:52:14;;;;;;;;;;;;;;;6.68;81.68;99373.16;4966935;28;19922;-84
2022/04/18 03:54:40;;;;;;;;;;;;;;;6.58;82.70;99377.56;4968582;28;19922;-84
2022/04/18 03:57:06;;;;;;;;;;;;;;;6.71;81.67;99374.88;4963455;28;19918;-83
2022/04/18 03:59:32;;;;;;;;;;;;;;;6.60;81.62;99378.41;4968140;28;19929;-85
2022/04/18 04:01:57;;;;;;;;;;;;;;;6.34;82.60;99369.78;4967371;28;20361;-84
2022/04/18 04:04:22;;;;;;;;;;;;;;;6.79;81.87;99378.34;4968111;28;19918;-84
2022/04/18 04:06:47;;;;;;;;;;;;;;;6.42;82.48;99383.72;4967427;28;19917;-84
2022/04/18 04:09:13;;;;;;;;;;;;;;;6.65;82.70;99386.25;4967810;28;20008;-84
2022/04/18 04:11:38;;;;;;;;;;;;;;;6.74;82.17;99386.22;4967848;28;19922;-83
2022/04/18 04:14:04;;;;;;;;;;;;;;;6.83;82.25;99382.69;4967421;28;19925;-84
2022/04/18 04:16:29;;;;;;;;;;;;;;;6.96;81.29;99373.88;4968087;28;19953;-83
2022/04/18 04:18:54;;;;;;;;;;;;;;;6.62;82.41;99379.28;4967928;28;19944;-83
2022/04/18 04:21:19;;;;;;;;;;;;;;;6.75;82.61;99379.22;4968113;28;19925;-82
2022/04/18 04:23:45;;;;;;;;;;;;;;;6.86;82.26;99381.78;4967433;28;19953;-82
2022/04/18 04:26:10;;;;;;;;;;;;;;;6.99;81.62;99371.22;4967016;28;19926;-83
2022/04/18 04:28:36;;;;;;;;;;;;;;;6.77;82.22;99377.47;4968078;28;20443;-84
2022/04/18 04:31:04;;;;;;;;;;;;;;;7.16;81.29;99378.13;4966704;28;19960;-84
2022/04/18 04:33:30;;;;;;;;;;;;;;;7.21;81.58;99375.47;4948708;28;19958;-83
2022/04/18 04:35:57;;;;;;;;;;;;;;;7.17;81.75;99377.28;4951372;28;19933;-84
2022/04/18 04:38:22;;;;;;;;;;;;;;;7.24;81.29;99373.69;4967460;28;19953;-83
2022/04/18 04:40:48;;;;;;;;;;;;;;;7.33;80.63;99376.25;4968109;28;19965;-84
2022/04/18 04:43:13;;;;;;;;;;;;;;;7.26;80.32;99382.47;4967315;28;19918;-83
2022/04/18 04:45:39;;;;;;;;;;;;;;;7.32;80.56;99371.03;4967570;28;19921;-84
2022/04/18 04:48:04;;;;;;;;;;;;;;;7.30;80.41;99376.28;4966404;28;19928;-83
2022/04/18 04:50:31;;;;;;;;;;;;;;;7.38;80.95;99378.84;4971180;28;19923;-84
2022/04/18 04:52:57;;;;;;;;;;;;;;;7.44;80.36;99377.94;4970528;28;19922;-83
2022/04/18 04:55:22;;;;;;;;;;;;;;;7.26;80.56;99379.84;4970945;28;20428;-86
2022/04/18 04:57:47;;;;;;;;;;;;;;;7.22;80.81;99372.00;4971197;28;20432;-84
2022/04/18 05:00:13;;;;;;;;;;;;;;;7.22;80.97;99383.34;4971509;28;20463;-85
2022/04/18 05:02:38;;;;;;;;;;;;;;;7.42;80.85;99384.97;4969849;28;19945;-85
2022/04/18 05:05:04;;;;;;;;;;;;;;;7.27;80.56;99384.19;4971628;28;19918;-85
2022/04/18 05:07:29;;;;;;;;;;;;;;;7.17;81.00;99387.75;4971567;28;20744;-85
2022/04/18 05:09:55;;;;;;;;;;;;;;;7.32;81.20;99384.16;4971166;28;19924;-84
2022/04/18 05:12:20;;;;;;;;;;;;;;;7.35;81.16;99385.03;4971560;28;19961;-84
2022/04/18 05:14:45;;;;;;;;;;;;;;;7.23;81.17;99397.31;4971158;28;19917;-84
2022/04/18 05:17:11;;;;;;;;;;;;;;;7.34;80.32;99387.66;4969882;28;19925;-84
2022/04/18 05:19:36;;;;;;;;;;;;;;;7.35;80.22;99390.28;4952419;28;20039;-84
2022/04/18 05:22:01;;;;;;;;;;;;;;;7.23;80.11;99387.72;4964451;28;19953;-83
2022/04/18 05:24:27;;;;;;;;;;;;;;;7.10;80.63;99389.53;4970362;28;20316;-83
2022/04/18 05:26:52;;;;;;;;;;;;;;;7.09;81.80;99395.69;4969459;28;19997;-82
2022/04/18 05:29:17;;;;;;;;;;;;;;;7.35;81.16;99395.50;4965786;28;20344;-85
2022/04/18 05:31:42;;;;;;;;;;;;;;;7.20;80.75;99392.09;4951625;28;20544;-84
2022/04/18 05:34:08;;;;;;;;;;;;;;;6.98;81.49;99390.50;4966540;28;20297;-84
2022/04/18 05:36:33;;;;;;;;;;;;;;;7.12;81.13;99393.03;4970969;28;19945;-84
2022/04/18 05:38:59;;;;;;;;;;;;;;;7.28;80.44;99400.81;4969296;28;19968;-83
2022/04/18 05:41:24;;;;;;;;;;;;;;;7.58;80.29;99397.09;4969225;28;19918;-84
2022/04/18 05:43:49;;;;;;;;;;;;;;;7.45;79.72;99404.19;4970812;28;19928;-84
2022/04/18 05:46:15;;;;;;;;;;;;;;;7.24;80.85;99407.81;4970050;28;19921;-85
2022/04/18 05:48:41;;;;;;;;;;;;;;;7.29;80.98;99403.44;4968828;28;19953;-86
2022/04/18 05:51:06;;;;;;;;;;;;;;;7.42;79.93;99408.59;4965934;28;20301;-84
2022/04/18 05:53:32;;;;;;;;;;;;;;;7.44;80.65;99405.06;4962906;28;19953;-84
2022/04/18 05:55:57;;;;;;;;;;;;;;;7.68;80.32;99408.41;4951879;28;19964;-84
2022/04/18 05:58:22;;;;;;;;;;;;;;;7.78;80.31;99399.56;4966576;28;19914;-84
2022/04/18 06:00:48;;;;;;;;;;;;;;;7.48;81.22;99411.19;4969148;28;19922;-86
2022/04/18 06:03:13;;;;;;;;;;;;;;;7.77;80.52;99407.44;4970273;28;19918;-85
2022/04/18 06:05:39;;;;;;;;;;;;;;;7.72;79.50;99412.72;4969641;28;20328;-85
2022/04/18 06:08:04;;;;;;;;;;;;;;;7.70;81.10;99406.63;4967662;28;20024;-84
2022/04/18 06:10:29;;;;;;;;;;;;;;;7.74;80.81;99404.84;4968989;28;19926;-84
2022/04/18 06:12:55;;;;;;;;;;;;;;;7.64;79.77;99410.16;4970177;28;20004;-85
2022/04/18 06:15:20;;;;;;;;;;;;;;;7.89;79.59;99417.84;4969594;28;19997;-84
2022/04/18 06:17:46;;;;;;;;;;;;;;;7.72;79.41;99412.72;4970019;28;20360;-84
2022/04/18 06:20:11;;;;;;;;;;;;;;;7.75;79.86;99417.09;4969799;28;19914;-84
2022/04/18 06:22:36;;;;;;;;;;;;;;;7.87;79.42;99420.47;4968788;28;19965;-85
2022/04/18 06:25:02;;;;;;;;;;;;;;;7.51;79.35;99416.41;4969500;28;19922;-85
2022/04/18 06:27:27;;;;;;;;;;;;;;;7.75;79.92;99422.34;4969785;28;20488;-86
2022/04/18 06:29:52;;;;;;;;;;;;;;;8.04;79.67;99422.09;4969771;28;19976;-84
2022/04/18 06:32:18;;;;;;;;;;;;;;;8.00;78.88;99425.63;4969494;28;19940;-86
2022/04/18 06:34:44;;;;;;;;;;;;;;;7.89;78.66;99424.00;4969225;28;20455;-85
2022/04/18 06:37:10;;;;;;;;;;;;;;;7.97;78.77;99436.16;4967407;28;19918;-85
2022/04/18 06:39:36;;;;;;;;;;;;;;;8.00;79.60;99429.16;4970297;28;19925;-85
2022/04/18 06:42:02;;;;;;;;;;;;;;;8.09;78.96;99432.56;4969371;28;19910;-85
2022/04/18 06:44:27;;;;;;;;;;;;;;;8.22;78.98;99429.81;4969856;28;19918;-85
2022/04/18 06:46:53;;;;;;;;;;;;;;;8.35;78.77;99427.94;4970005;28;20300;-85
2022/04/18 06:49:18;;;;;;;;;;;;;;;8.16;78.19;99429.00;4969579;28;20368;-85
2022/04/18 06:51:43;;;;;;;;;;;;;;;8.19;78.73;99437.72;4969431;28;19918;-86
2022/04/18 06:54:08;;;;;;;;;;;;;;;8.34;77.44;99441.97;4969556;28;20380;-84
2022/04/18 06:59:18;;;;;;;;;;;;;;;7.93;76.75;99443.22;4968402;28;19924;-84
2022/04/18 07:01:43;;;;;;;;;;;;;;;8.09;75.74;99443.06;4968876;28;19918;-84
2022/04/18 07:04:08;;;;;;;;;;;;;;;8.19;76.07;99442.97;4967979;28;20444;-84
2022/04/18 07:06:35;;;;;;;;;;;;;;;8.31;71.68;99447.25;4969229;28;19925;-83
2022/04/18 07:09:03;;;;;;;;;;;;;;;8.38;70.27;99453.31;4983895;28;19981;-84
2022/04/18 07:11:28;;;;;;;;;;;;;;;8.59;70.93;99453.13;4968254;28;19926;-84
2022/04/18 07:13:54;;;;;;;;;;;;;;;8.58;72.38;99447.88;4969440;28;19929;-84
2022/04/18 07:16:19;;;;;;;;;;;;;;;8.58;71.93;99440.00;4968683;28;19997;-84
2022/04/18 07:18:44;;;;;;;;;;;;;;;8.70;72.07;99452.16;4968974;28;19917;-87
2022/04/18 07:21:10;;;;;;;;;;;;;;;8.54;71.11;99457.56;4968710;28;19918;-86
2022/04/18 07:23:35;;;;;;;;;;;;;;;8.56;71.08;99460.19;4968692;28;19922;-87
2022/04/18 07:26:00;;;;;;;;;;;;;;;8.45;70.48;99462.94;4967663;28;19973;-86
2022/04/18 07:28:26;;;;;;;;;;;;;;;8.37;70.32;99462.06;4969826;28;19965;-85
2022/04/18 07:30:51;;;;;;;;;;;;;;;8.46;70.13;99467.28;4969345;28;19945;-82
2022/04/18 07:33:16;;;;;;;;;;;;;;;8.47;70.81;99469.03;4969239;28;19922;-83
2022/04/18 07:35:42;;;;;;;;;;;;;;;8.50;70.28;99469.00;4969384;28;19964;-84
2022/04/18 07:40:52;;;;;;;;;;;;;;;8.05;72.97;99471.16;4968390;28;19929;-84
2022/04/18 07:43:18;;;;;;;;;;;;;;;8.21;72.99;99467.47;4968284;28;19914;-84
2022/04/18 07:45:43;;;;;;;;;;;;;;;8.34;73.52;99478.78;4968994;28;20021;-85
2022/04/18 07:48:08;;;;;;;;;;;;;;;8.41;71.96;99475.19;4968958;28;20020;-85
2022/04/18 07:53:17;;;;;;;;;;;;;;;7.99;72.45;99479.94;4949004;29;19926;-85
2022/04/18 07:55:43;;;;;;;;;;;;;;;8.17;72.35;99484.19;4949695;28;19914;-85
2022/04/18 07:58:08;;;;;;;;;;;;;;;7.98;71.62;99480.81;4948911;28;19925;-84
2022/04/18 08:00:33;;;;;;;;;;;;;;;8.07;71.79;99493.00;4959118;28;19914;-85
2022/04/18 08:02:59;;;;;;;;;;;;;;;8.19;71.72;99489.41;4967488;28;20381;-85
2022/04/18 08:05:24;;;;;;;;;;;;;;;8.13;71.14;99489.47;4968093;28;19914;-84
2022/04/18 08:07:50;;;;;;;;;;;;;;;7.94;71.25;99489.63;4968132;28;19949;-84
2022/04/18 08:10:16;;;;;;;;;;;;;;;8.11;72.45;99489.47;4966814;28;19981;-84
2022/04/18 08:12:41;;;;;;;;;;;;;;;8.05;73.26;99490.41;4968838;28;19918;-84
2022/04/18 08:15:08;;;;;;;;;;;;;;;8.11;72.53;99491.22;4965706;28;19981;-85
2022/04/18 08:17:34;;;;;;;;;;;;;;;8.23;72.51;99499.00;4968681;28;20889;-85
2022/04/18 08:19:59;;;;;;;;;;;;;;;8.01;72.20;99501.78;4967887;28;19917;-84
2022/04/18 08:22:24;;;;;;;;;;;;;;;8.18;71.99;99501.66;4968111;28;19984;-84
2022/04/18 08:24:49;;;;;;;;;;;;;;;8.23;71.82;99499.00;4970909;28;19928;-84
2022/04/18 08:27:15;;;;;;;;;;;;;;;8.51;71.09;99502.31;4971323;28;19914;-85
2022/04/18 08:29:40;;;;;;;;;;;;;;;8.68;71.89;99503.88;4972022;28;19996;-85
2022/04/18 08:32:05;;;;;;;;;;;;;;;8.63;73.66;99497.78;4971963;28;19917;-84
2022/04/18 08:34:31;;;;;;;;;;;;;;;8.74;72.08;99504.69;4972383;28;19925;-84
2022/04/18 08:36:56;;;;;;;;;;;;;;;8.91;71.04;99501.00;4972092;28;19924;-84
2022/04/18 08:39:22;;;;;;;;;;;;;;;8.94;71.04;99512.38;4971275;28;19925;-84
2022/04/18 08:41:50;;;;;;;;;;;;;;;8.71;72.89;99506.47;4970987;28;19925;-83
2022/04/18 08:44:15;;;;;;;;;;;;;;;8.74;73.74;99515.22;4971650;28;20016;-84
2022/04/18 08:46:41;;;;;;;;;;;;;;;8.86;71.29;99510.69;4971549;28;20032;-84
2022/04/18 08:54:38;;;;;;;;;;;;;;;8.39;72.62;99518.16;4940404;28;20480;-83
2022/04/18 08:57:04;;;;;;;;;;;;;;;8.32;70.23;99517.31;4952119;28;19964;-83
2022/04/18 08:59:29;;;;;;;;;;;;;;;8.24;71.65;99524.41;4953755;28;19946;-84
2022/04/18 09:01:55;;;;;;;;;;;;;;;8.25;73.94;99519.13;4971493;28;19980;-83
2022/04/18 09:04:20;;;;;;;;;;;;;;;8.26;73.38;99517.38;4971457;28;19924;-84
2022/04/18 09:06:46;;;;;;;;;;;;;;;8.44;74.55;99518.16;4971145;28;20459;-84
2022/04/18 09:09:11;;;;;;;;;;;;;;;8.51;72.40;99519.81;4970520;28;19918;-84
2022/04/18 09:11:37;;;;;;;;;;;;;;;8.50;72.47;99515.47;4971358;28;19922;-86
2022/04/18 09:14:10;;;;;;;;;;;;;;;8.78;71.41;99518.69;4971312;28;19941;-84
2022/04/18 09:16:36;;;;;;;;;;;;;;;8.67;72.27;99518.78;4970005;28;19918;-84
2022/04/18 09:19:05;;;;;;;;;;;;;;;8.75;72.08;99516.94;4970543;28;20020;-84
2022/04/18 09:21:30;;;;;;;;;;;;;;;8.85;70.91;99525.63;4971276;28;19984;-85
2022/04/18 09:23:55;;;;;;;;;;;;;;;9.25;69.79;99511.13;4970260;28;19953;-85
2022/04/18 09:26:21;;;;;;;;;;;;;;;9.22;69.16;99514.69;4968917;28;19918;-83
2022/04/18 09:28:46;;;;;;;;;;;;;;;9.65;67.86;99518.47;4970960;28;19914;-84
2022/04/18 09:31:13;;;;;;;;;;;;;;;9.97;69.02;99510.09;4970411;28;19918;-83
2022/04/18 09:33:38;;;;;;;;;;;;;;;10.09;66.83;99511.69;4971532;28;19972;-84
2022/04/18 09:36:23;;;;;;;;;;;;;;;9.84;65.50;99512.06;4970600;28;20628;-84
2022/04/18 09:38:50;;;;;;;;;;;;;;;9.44;63.57;99515.25;4969539;28;19989;-84
2022/04/18 09:41:20;;;;;;;;;;;;;;;9.45;65.12;99513.50;4970772;28;19918;-84
2022/04/18 09:43:47;;;;;;;;;;;;;;;9.26;67.65;99519.00;4969928;28;20408;-84
2022/04/18 09:46:13;;;;;;;;;;;;;;;9.04;67.94;99521.03;4970885;28;19914;-84
2022/04/18 09:48:38;;;;;;;;;;;;;;;8.72;66.35;99530.13;4970594;28;19924;-84
2022/04/18 09:51:08;;;;;;;;;;;;;;;8.74;67.71;99523.09;4969473;28;20020;-83
2022/04/18 09:53:34;;;;;;;;;;;;;;;8.62;70.94;99517.97;4970656;28;20018;-84
2022/04/18 09:56:00;;;;;;;;;;;;;;;9.01;70.01;99520.19;4969833;28;20153;-84
2022/04/18 09:58:27;;;;;;;;;;;;;;;8.79;68.40;99515.16;4970870;28;20380;-84
2022/04/18 10:00:52;;;;;;;;;;;;;;;8.56;68.98;99512.78;4970048;28;20009;-84
2022/04/18 10:03:18;;;;;;;;;;;;;;;8.89;71.06;99518.56;4970466;28;20009;-84
2022/04/18 10:05:43;;;;;;;;;;;;;;;9.14;67.86;99513.88;4969968;28;19914;-83
2022/04/18 10:08:09;;;;;;;;;;;;;;;9.22;66.51;99521.69;4970803;28;19914;-83
2022/04/18 10:10:35;;;;;;;;;;;;;;;9.62;66.82;99521.16;4967918;28;19918;-83
2022/04/18 10:13:03;;;;;;;;;;;;;;;9.77;67.08;99517.44;4970209;28;20021;-84
2022/04/18 10:15:29;;;;;;;;;;;;;;;9.53;66.07;99518.66;4969527;28;19918;-83
2022/04/18 10:17:55;;;;;;;;;;;;;;;9.75;66.15;99520.09;4968846;28;20320;-83
2022/04/18 10:20:27;;;;;;;;;;;;;;;9.88;63.68;99519.94;4968987;28;19921;-83
2022/04/18 10:23:11;;;;;;;;;;;;;;;9.90;64.04;99510.22;4968396;28;20363;-84
2022/04/18 10:25:57;;;;;;;;;;;;;;;9.89;62.70;99514.63;4969918;28;20008;-85
2022/04/18 10:28:34;;;;;;;;;;;;;;;9.72;66.36;99516.66;4969153;28;19973;-84
2022/04/18 10:31:01;;;;;;;;;;;;;;;9.77;64.74;99509.53;4968934;28;19918;-83
2022/04/18 10:33:27;;;;;;;;;;;;;;;9.73;63.58;99510.47;4969551;28;20672;-83
2022/04/18 10:36:00;;;;;;;;;;;;;;;9.67;64.22;99512.31;4969726;28;20016;-83
2022/04/18 10:38:26;;;;;;;;;;;;;;;9.81;64.60;99516.53;4968899;28;19922;-83
2022/04/18 10:41:14;;;;;;;;;;;;;;;10.07;63.40;99510.84;4969639;28;19918;-81
2022/04/18 10:43:58;;;;;;;;;;;;;;;10.23;63.33;99516.75;4968974;28;19964;-81
2022/04/18 10:46:23;;;;;;;;;;;;;;;9.49;62.89;99518.69;4968818;28;19972;-81
2022/04/18 10:48:56;;;;;;;;;;;;;;;8.91;66.29;99524.66;4969814;28;19953;-81
2022/04/18 10:51:35;;;;;;;;;;;;;;;8.46;67.62;99525.09;4969614;28;20672;-81
2022/04/18 10:54:25;;;;;;;;;;;;;;;8.31;69.11;99520.84;4969936;28;19918;-85
2022/04/18 10:56:50;;;;;;;;;;;;;;;8.74;67.84;99522.22;4961539;28;20415;-85
2022/04/18 10:59:20;;;;;;;;;;;;;;;8.95;65.85;99529.88;4968455;28;19918;-85
2022/04/18 11:01:46;;;;;;;;;;;;;;;9.41;64.75;99525.84;4969800;28;20000;-84
2022/04/18 11:04:11;;;;;;;;;;;;;;;9.23;65.77;99519.03;4969420;28;20016;-82
2022/04/18 11:06:37;;;;;;;;;;;;;;;8.97;67.54;99519.34;4969279;28;20372;-82
2022/04/18 11:09:07;;;;;;;;;;;;;;;8.78;68.00;99523.94;4968150;28;19924;-82
2022/04/18 11:11:43;;;;;;;;;;;;;;;8.68;66.63;99520.53;4968875;28;20372;-82
2022/04/18 11:14:14;;;;;;;;;;;;;;;8.38;66.91;99526.91;4968376;28;20484;-82
2022/04/18 11:16:43;;;;;;;;;;;;;;;8.11;66.69;99534.16;4969095;28;19940;-82
2022/04/18 11:19:09;;;;;;;;;;;;;;;8.37;65.56;99527.78;4969215;28;19914;-82
2022/04/18 11:21:54;;;;;;;;;;;;;;;8.32;66.57;99526.97;4968739;28;19918;-83
2022/04/18 11:24:43;;;;;;;;;;;;;;;8.55;66.92;99526.78;4968973;28;19922;-82
2022/04/18 11:27:12;;;;;;;;;;;;;;;8.20;67.22;99522.66;4960594;28;19917;-83
2022/04/18 11:29:42;;;;;;;;;;;;;;;8.15;68.43;99522.72;4969081;28;20471;-83
2022/04/18 11:32:08;;;;;;;;;;;;;;;8.23;69.01;99530.53;4968916;28;20353;-83
2022/04/18 11:34:35;;;;;;;;;;;;;;;7.92;69.00;99522.03;4969009;28;19925;-85
2022/04/18 11:37:02;;;;;;;;;;;;;;;8.09;70.93;99519.28;4968720;28;20310;-84
2022/04/18 11:39:46;;;;;;;;;;;;;;;8.03;69.62;99517.53;4961964;28;19929;-84
2022/04/18 11:42:15;;;;;;;;;;;;;;;8.29;70.20;99511.22;4968297;28;19953;-84
2022/04/18 11:44:41;;;;;;;;;;;;;;;8.54;71.14;99512.78;4967741;28;19925;-84
2022/04/18 11:47:08;;;;;;;;;;;;;;;8.81;71.43;99512.53;4966182;28;19926;-84
2022/04/18 11:49:33;;;;;;;;;;;;;;;9.00;71.61;99514.03;4964272;28;19918;-85
2022/04/18 11:51:59;;;;;;;;;;;;;;;9.17;71.17;99510.34;4967855;28;19956;-84
2022/04/18 11:54:24;;;;;;;;;;;;;;;9.01;68.39;99509.66;4968606;28;20662;-84
2022/04/18 11:57:03;;;;;;;;;;;;;;;9.32;70.19;99508.38;4967601;28;20687;-84
2022/04/18 11:59:32;;;;;;;;;;;;;;;9.21;69.13;99507.66;4975246;28;19929;-84
2022/04/18 12:07:29;;;;;;;;;;;;;;;8.82;69.17;99507.25;4974878;28;19945;-84
2022/04/18 12:09:54;;;;;;;;;;;;;;;9.05;70.71;99499.09;4974727;28;19922;-84
2022/04/18 12:12:29;;;;;;;;;;;;;;;9.31;66.17;99497.88;4973627;28;19945;-84
2022/04/18 12:15:02;;;;;;;;;;;;;;;9.22;67.70;99498.00;4973831;28;20367;-84
2022/04/18 12:17:27;;;;;;;;;;;;;;;9.40;68.78;99489.84;4974905;28;19996;-84
2022/04/18 12:19:53;;;;;;;;;;;;;;;9.62;67.57;99490.44;4974772;28;20472;-83
2022/04/18 12:22:20;;;;;;;;;;;;;;;9.71;66.98;99491.19;4975030;28;19914;-84
2022/04/18 12:24:45;;;;;;;;;;;;;;;9.92;68.09;99487.38;4974847;28;19917;-83
2022/04/18 12:27:10;;;;;;;;;;;;;;;9.94;68.13;99483.81;4974812;28;19925;-85
2022/04/18 12:29:37;;;;;;;;;;;;;;;10.16;67.17;99476.44;4974717;28;20644;-85
2022/04/18 12:32:04;;;;;;;;;;;;;;;10.14;69.80;99483.47;4974655;28;20677;-84
2022/04/18 12:34:29;;;;;;;;;;;;;;;10.46;68.88;99484.75;4973206;28;20305;-85
2022/04/18 12:36:58;;;;;;;;;;;;;;;10.47;62.94;99478.56;4974831;28;19925;-85
2022/04/18 12:39:25;;;;;;;;;;;;;;;10.31;66.14;99469.16;4975084;28;19918;-83
2022/04/18 12:41:59;;;;;;;;;;;;;;;10.77;63.88;99467.44;4974860;28;19929;-84
2022/04/18 12:44:24;;;;;;;;;;;;;;;10.31;66.04;99456.84;4974623;28;20017;-84
2022/04/18 12:46:50;;;;;;;;;;;;;;;10.60;64.96;99454.59;4974713;28;20025;-83
2022/04/18 12:49:15;;;;;;;;;;;;;;;10.24;62.95;99457.84;4974615;28;19969;-84
2022/04/18 12:51:42;;;;;;;;;;;;;;;10.19;61.22;99460.56;4974292;28;19917;-85
2022/04/18 12:54:20;;;;;;;;;;;;;;;9.98;62.88;99455.66;4972783;28;20312;-85
2022/04/18 12:56:46;;;;;;;;;;;;;;;9.84;63.64;99451.47;4973741;28;20380;-85
2022/04/18 12:59:14;;;;;;;;;;;;;;;9.58;64.89;99448.38;4973392;28;19949;-84
2022/04/18 13:01:40;;;;;;;;;;;;;;;9.22;65.05;99456.78;4973840;28;19922;-84
2022/04/18 13:04:18;;;;;;;;;;;;;;;9.58;66.77;99451.00;4974781;28;20404;-85
2022/04/18 13:06:43;;;;;;;;;;;;;;;9.79;69.27;99447.16;4974745;28;20388;-84
2022/04/18 13:09:09;;;;;;;;;;;;;;;10.15;66.18;99443.06;4972309;28;19914;-86
2022/04/18 13:11:44;;;;;;;;;;;;;;;10.09;64.66;99440.53;4970779;28;20385;-85
2022/04/18 13:14:13;;;;;;;;;;;;;;;10.37;62.93;99442.72;4970916;28;19925;-84
2022/04/18 13:16:40;;;;;;;;;;;;;;;10.25;60.76;99443.75;4971531;28;20000;-85
2022/04/18 13:19:12;;;;;;;;;;;;;;;9.84;64.01;99440.94;4970624;28;20297;-85